KETN/ETN METAR and TAF weather

Enter ICAO airport designator
Station Type Date Time Source
KETN METAR 2021/08/05 04:35 UTC NOAA

KETN 050435Z AUTO 11005KT 10SM OVC095 24/17 A3010 RMK AO2 T02370173


Station Type Date Time Source
KETN Decoded METAR 2021/08/05 04:35 UTC NOAA

Station name not available
Aug 05, 2021 - 12:35 AM EDT / 2021.08.05 0435 UTC
Wind: from the ESE (110 degrees) at 6 MPH (5 KT):0
Visibility: 10 mile(s):0
Sky conditions: overcast
Temperature: 74.7 F (23.7 C)
Dew Point: 63.1 F (17.3 C)
Relative Humidity: 67%
Pressure (altimeter): 30.1 in. Hg (1019 hPa)
ob: KETN 050435Z AUTO 11005KT 10SM OVC095 24/17 A3010 RMK AO2 T02370173
cycle: 4

Station Type Date Time Source
KETN TAF UTC NOAA

Error!

Example: see airport list